createdAt,value
2022-08-11T00:01:19.274Z,5.72
2022-08-11T00:03:54.856Z,4.97
2022-08-11T00:06:32.312Z,7.07
2022-08-11T00:09:00.550Z,6.53
2022-08-11T00:11:52.760Z,4.93
2022-08-11T00:14:20.931Z,4.72
2022-08-11T00:16:56.668Z,6.13
2022-08-11T00:20:15.193Z,5.50
2022-08-11T00:22:21.563Z,5.55
2022-08-11T00:24:54.957Z,6.63
2022-08-11T00:27:38.194Z,7.53
2022-08-11T00:30:06.862Z,6.57
2022-08-11T00:32:34.477Z,5.10
2022-08-11T00:35:50.977Z,6.05
2022-08-11T00:37:52.513Z,5.38
2022-08-11T00:40:36.405Z,5.50
2022-08-11T00:43:23.745Z,8.43
2022-08-11T00:46:12.373Z,7.35
2022-08-11T00:48:48.794Z,5.80
2022-08-11T00:52:03.915Z,6.55
2022-08-11T00:54:48.872Z,5.13
2022-08-11T00:57:36.991Z,5.55
2022-08-11T01:00:16.288Z,5.80
2022-08-11T01:03:21.925Z,5.97
2022-08-11T01:06:21.102Z,6.82
2022-08-11T01:09:26.952Z,7.07
2022-08-11T01:12:29.735Z,6.78
2022-08-11T01:14:56.257Z,6.07
2022-08-11T01:17:59.954Z,5.43
2022-08-11T01:20:46.928Z,5.15
2022-08-11T01:23:46.249Z,6.20
2022-08-11T01:26:34.840Z,5.68
2022-08-11T01:29:56.822Z,5.97
2022-08-11T01:32:57.107Z,5.13
2022-08-11T01:35:48.520Z,6.78
2022-08-11T01:38:47.687Z,6.35
2022-08-11T01:41:51.874Z,5.63
2022-08-11T01:44:42.652Z,6.38
2022-08-11T01:47:53.346Z,6.55
2022-08-11T01:50:53.943Z,7.05
2022-08-11T01:53:50.314Z,7.50
2022-08-11T01:56:33.371Z,7.35
2022-08-11T01:59:05.331Z,6.78
2022-08-11T02:01:44.414Z,7.32
2022-08-11T02:04:42.161Z,7.82
2022-08-11T02:07:46.561Z,7.15
2022-08-11T02:10:50.413Z,6.93
2022-08-11T02:13:42.072Z,7.15
2022-08-11T02:16:28.986Z,6.78
2022-08-11T02:19:46.645Z,7.10
2022-08-11T02:22:49.532Z,6.97
2022-08-11T02:25:41.089Z,7.05
2022-08-11T02:28:28.850Z,9.27
2022-08-11T02:32:24.003Z,8.40
2022-08-11T02:34:59.615Z,9.73
2022-08-11T02:37:32.914Z,9.45
2022-08-11T02:39:59.471Z,8.15
2022-08-11T02:42:47.212Z,7.00
2022-08-11T02:45:54.609Z,8.52
2022-08-11T02:49:16.608Z,7.53
2022-08-11T02:52:19.413Z,8.93
2022-08-11T02:55:10.742Z,8.70
2022-08-11T02:58:16.368Z,9.05
2022-08-11T03:01:11.512Z,12.20
2022-08-11T03:03:54.360Z,10.25
2022-08-11T03:06:45.966Z,8.43
2022-08-11T03:09:43.932Z,8.00
2022-08-11T03:12:38.612Z,8.27
2022-08-11T03:15:41.128Z,9.55
2022-08-11T03:18:28.219Z,11.25
2022-08-11T03:21:11.277Z,8.65
2022-08-11T03:23:49.477Z,8.25
2022-08-11T03:26:53.843Z,8.20
2022-08-11T03:29:35.424Z,8.45
2022-08-11T03:32:09.987Z,8.10
2022-08-11T03:34:41.375Z,10.00
2022-08-11T03:37:38.805Z,8.50
2022-08-11T03:40:52.059Z,11.10
2022-08-11T03:43:58.330Z,10.52
2022-08-11T03:47:20.647Z,10.57
2022-08-11T03:49:57.945Z,12.85
2022-08-11T03:52:46.277Z,8.10
2022-08-11T03:55:43.641Z,9.68
2022-08-11T03:58:25.283Z,12.95
2022-08-11T04:01:27.120Z,10.23
2022-08-11T04:04:29.344Z,9.43
2022-08-11T04:07:23.957Z,11.70
2022-08-11T04:10:15.364Z,9.60
2022-08-11T04:12:55.534Z,14.43
2022-08-11T04:16:00.769Z,11.23
2022-08-11T04:19:15.351Z,11.48
2022-08-11T04:22:10.776Z,11.32
2022-08-11T04:25:02.839Z,12.05
2022-08-11T04:28:04.147Z,12.18
2022-08-11T04:30:56.132Z,14.02
2022-08-11T04:33:48.493Z,11.70
2022-08-11T04:37:00.238Z,11.32
2022-08-11T04:40:02.378Z,10.73
2022-08-11T04:43:21.532Z,13.27
2022-08-11T04:46:13.734Z,10.77
2022-08-11T04:49:24.187Z,10.95
2022-08-11T04:52:36.078Z,11.60
2022-08-11T04:55:29.265Z,11.57
2022-08-11T04:58:43.519Z,12.35
2022-08-11T05:01:43.539Z,14.45
2022-08-11T05:04:47.615Z,11.85
2022-08-11T05:07:53.521Z,10.32
2022-08-11T05:10:29.681Z,10.07
2022-08-11T05:13:20.808Z,14.02
2022-08-11T05:16:11.235Z,12.18
2022-08-11T05:19:06.361Z,9.55
2022-08-11T05:21:53.799Z,9.93
2022-08-11T05:25:03.467Z,8.93
2022-08-11T05:27:57.156Z,8.98
2022-08-11T05:30:47.850Z,8.38
2022-08-11T05:33:43.987Z,8.65
2022-08-11T05:36:39.443Z,7.32
2022-08-11T05:39:36.135Z,8.00
2022-08-11T05:42:30.172Z,7.40
2022-08-11T05:45:28.407Z,6.85
2022-08-11T05:48:33.529Z,6.68
2022-08-11T05:51:30.038Z,7.38
2022-08-11T05:54:28.221Z,8.48
2022-08-11T05:57:01.724Z,6.78
2022-08-11T05:59:29.392Z,6.07
2022-08-11T06:02:04.423Z,6.13
2022-08-11T06:04:32.234Z,5.72
2022-08-11T06:07:06.292Z,5.28
2022-08-11T06:09:47.834Z,5.95
2022-08-11T06:12:22.804Z,5.95
2022-08-11T06:14:56.259Z,5.05
2022-08-11T06:17:39.213Z,5.43
2022-08-11T06:20:13.394Z,5.28
2022-08-11T06:22:43.637Z,5.28
2022-08-11T06:25:11.391Z,4.50
2022-08-11T06:27:40.165Z,5.47
2022-08-11T06:30:13.504Z,4.65
2022-08-11T06:32:46.306Z,4.68
2022-08-11T06:35:30.069Z,4.20
2022-08-11T06:38:02.524Z,5.28
2022-08-11T06:41:12.438Z,3.95
2022-08-11T06:43:59.875Z,4.32
2022-08-11T06:46:33.139Z,3.78
2022-08-11T06:49:03.808Z,3.70
2022-08-11T06:51:32.430Z,5.07
2022-08-11T06:54:04.342Z,3.47
2022-08-11T06:57:28.418Z,3.65
2022-08-11T07:00:02.558Z,4.45
2022-08-11T07:02:36.917Z,5.50
2022-08-11T07:05:08.077Z,6.57
2022-08-11T07:07:56.461Z,3.75
2022-08-11T07:11:14.196Z,3.47
2022-08-11T07:14:00.519Z,4.90
2022-08-11T07:16:30.881Z,3.78
2022-08-11T07:19:24.522Z,4.07
2022-08-11T07:22:18.737Z,6.25
2022-08-11T07:25:13.279Z,3.03
2022-08-11T07:28:06.062Z,3.20
2022-08-11T07:30:35.604Z,4.43
2022-08-11T07:33:03.400Z,4.15
2022-08-11T07:35:35.150Z,2.72
2022-08-11T07:38:08.007Z,2.90
2022-08-11T07:40:36.583Z,3.00
2022-08-11T07:43:04.098Z,3.03
2022-08-11T07:45:50.128Z,4.53
2022-08-11T07:48:36.197Z,3.55
2022-08-11T07:51:22.332Z,7.18
2022-08-11T07:53:58.504Z,3.30
2022-08-11T07:56:55.522Z,3.40
2022-08-11T08:00:04.124Z,3.13
2022-08-11T08:02:49.909Z,3.13
2022-08-11T08:05:36.648Z,4.30
2022-08-11T08:08:23.090Z,5.18
2022-08-11T08:11:08.864Z,4.95
2022-08-11T08:13:56.087Z,5.38
2022-08-11T08:16:41.624Z,3.42
2022-08-11T08:19:13.358Z,3.08
2022-08-11T08:21:40.465Z,6.80
2022-08-11T08:24:14.112Z,4.32
2022-08-11T08:26:58.368Z,2.65
2022-08-11T08:29:51.330Z,6.07
2022-08-11T08:32:19.448Z,2.45
2022-08-11T08:34:47.621Z,2.28
2022-08-11T08:37:46.177Z,3.40
2022-08-11T08:40:02.665Z,2.40
2022-08-11T08:42:31.779Z,1.90
2022-08-11T08:45:07.989Z,2.60
2022-08-11T08:47:43.410Z,1.77
2022-08-11T08:50:16.506Z,2.22
2022-08-11T08:52:49.798Z,5.65
2022-08-11T08:55:19.879Z,2.17
2022-08-11T08:57:52.842Z,2.70
2022-08-11T09:00:30.989Z,1.95
2022-08-11T09:02:58.076Z,2.78
2022-08-11T09:05:27.229Z,3.22
2022-08-11T09:07:55.068Z,1.50
2022-08-11T09:10:22.600Z,3.30
2022-08-11T09:12:59.717Z,2.80
2022-08-11T09:15:27.509Z,4.13
2022-08-11T09:18:03.434Z,2.63
2022-08-11T09:20:38.527Z,1.85
2022-08-11T09:24:07.650Z,3.70
2022-08-11T09:26:33.638Z,2.50
2022-08-11T09:29:01.825Z,1.42
2022-08-11T09:31:39.652Z,2.85
2022-08-11T09:34:08.242Z,1.55
2022-08-11T09:36:54.130Z,2.85
2022-08-11T09:39:39.819Z,1.25
2022-08-11T09:42:11.334Z,1.52
2022-08-11T09:44:50.676Z,1.27
2022-08-11T09:47:26.607Z,3.53
2022-08-11T09:50:02.076Z,6.03
2022-08-11T09:52:32.237Z,1.80
2022-08-11T09:54:59.905Z,1.42
2022-08-11T09:57:45.101Z,1.98
2022-08-11T10:00:14.333Z,1.95
2022-08-11T10:02:53.526Z,2.08
2022-08-11T10:05:39.346Z,2.63
2022-08-11T10:08:11.823Z,1.25
2022-08-11T10:10:40.066Z,1.70
2022-08-11T10:14:09.288Z,1.75
2022-08-11T10:16:15.961Z,3.03
2022-08-11T10:18:52.981Z,3.08
2022-08-11T10:21:36.777Z,7.15
2022-08-11T10:24:24.941Z,1.60
2022-08-11T10:27:00.619Z,1.38
2022-08-11T10:29:52.194Z,5.82
2022-08-11T10:32:49.398Z,7.38
2022-08-11T10:35:28.161Z,4.10
2022-08-11T10:38:05.848Z,3.10
2022-08-11T10:40:39.734Z,1.48
2022-08-11T10:43:13.247Z,1.90
2022-08-11T10:46:02.170Z,2.80
2022-08-11T10:48:38.541Z,2.83
2022-08-11T10:51:13.203Z,1.75
2022-08-11T10:54:12.320Z,1.20
2022-08-11T10:56:58.849Z,1.90
2022-08-11T10:59:28.590Z,1.10
2022-08-11T11:01:59.393Z,1.70
2022-08-11T11:04:52.611Z,1.30
2022-08-11T11:07:24.902Z,1.50
2022-08-11T11:09:57.408Z,1.70
2022-08-11T11:12:49.940Z,2.63
2022-08-11T11:15:38.823Z,1.58
2022-08-11T11:18:09.525Z,4.63
2022-08-11T11:20:47.709Z,2.25
2022-08-11T11:23:16.631Z,2.00
2022-08-11T11:26:27.669Z,2.45
2022-08-11T11:29:13.601Z,4.63
2022-08-11T11:32:09.176Z,3.30
2022-08-11T11:35:04.887Z,1.45
2022-08-11T11:37:35.503Z,1.30
2022-08-11T11:40:17.262Z,2.13
2022-08-11T11:42:45.680Z,1.52
2022-08-11T11:45:22.828Z,1.58
2022-08-11T11:47:53.830Z,1.45
2022-08-11T11:50:50.308Z,1.75
2022-08-11T11:53:20.367Z,1.40
2022-08-11T11:55:50.259Z,2.17
2022-08-11T12:01:34.257Z,1.50
2022-08-11T12:04:07.168Z,2.10
2022-08-11T12:06:34.766Z,1.08
2022-08-11T12:09:06.366Z,1.73
2022-08-11T12:11:53.441Z,1.45
2022-08-11T12:14:21.805Z,2.95
2022-08-11T12:16:49.000Z,1.80
2022-08-11T12:19:24.736Z,3.80
2022-08-11T12:22:17.656Z,2.42
2022-08-11T12:25:04.466Z,3.58
2022-08-11T12:27:31.664Z,2.10
2022-08-11T12:30:06.417Z,2.65
2022-08-11T12:32:36.275Z,2.13
2022-08-11T12:35:04.163Z,2.55
2022-08-11T12:37:37.955Z,1.60
2022-08-11T12:40:43.688Z,2.97
2022-08-11T12:43:40.909Z,2.30
2022-08-11T12:46:14.120Z,1.90
2022-08-11T12:49:04.029Z,1.50
2022-08-11T12:52:06.784Z,2.63
2022-08-11T12:54:42.385Z,1.30
2022-08-11T12:57:51.301Z,3.75
2022-08-11T13:00:38.004Z,1.83
2022-08-11T13:03:26.590Z,1.30
2022-08-11T13:05:57.517Z,3.08
2022-08-11T13:08:26.971Z,1.40
2022-08-11T13:11:14.393Z,1.42
2022-08-11T13:13:52.672Z,1.30
2022-08-11T13:16:26.361Z,1.33
2022-08-11T13:18:53.936Z,1.30
2022-08-11T13:21:22.100Z,1.25
2022-08-11T13:24:00.636Z,1.50
2022-08-11T13:26:47.101Z,1.73
2022-08-11T13:29:22.255Z,1.38
2022-08-11T13:31:49.693Z,2.38
2022-08-11T13:34:17.886Z,3.05
2022-08-11T13:36:45.758Z,1.50
2022-08-11T13:39:13.332Z,1.65
2022-08-11T13:41:45.013Z,1.35
2022-08-11T13:44:23.193Z,1.00
2022-08-11T13:47:13.234Z,2.85
2022-08-11T13:49:41.727Z,2.30
2022-08-11T13:52:14.954Z,1.27
2022-08-11T13:54:42.949Z,1.20
2022-08-11T13:58:06.515Z,2.05
2022-08-11T14:00:13.238Z,1.70
2022-08-11T14:02:53.840Z,2.67
2022-08-11T14:05:27.167Z,1.83
2022-08-11T14:08:02.586Z,1.42
2022-08-11T14:10:33.069Z,2.25
2022-08-11T14:13:27.438Z,3.35
2022-08-11T14:16:02.486Z,2.08
2022-08-11T14:18:32.021Z,1.52
2022-08-11T14:21:24.246Z,3.22
2022-08-11T14:23:59.415Z,3.90
2022-08-11T14:26:31.031Z,2.75
2022-08-11T14:29:08.505Z,3.25
2022-08-11T14:31:39.355Z,2.00
2022-08-11T14:34:10.262Z,2.03
2022-08-11T14:36:45.608Z,2.83
2022-08-11T14:39:18.499Z,2.63
2022-08-11T14:42:13.208Z,3.85
2022-08-11T14:45:03.737Z,1.60
2022-08-11T14:47:43.660Z,5.38
2022-08-11T14:50:25.041Z,2.30
2022-08-11T14:52:59.280Z,4.68
2022-08-11T14:55:48.075Z,2.35
2022-08-11T14:58:21.717Z,2.70
2022-08-11T15:00:59.500Z,3.38
2022-08-11T15:03:29.743Z,3.92
2022-08-11T15:06:03.301Z,1.65
2022-08-11T15:08:53.527Z,1.55
2022-08-11T15:12:04.804Z,3.42
2022-08-11T15:14:56.180Z,2.33
2022-08-11T15:17:30.881Z,5.47
2022-08-11T15:20:33.966Z,1.83
2022-08-11T15:23:21.563Z,2.80
2022-08-11T15:25:56.433Z,2.38
2022-08-11T15:28:44.798Z,1.48
2022-08-11T15:31:29.040Z,2.15
2022-08-11T15:34:18.673Z,1.92
2022-08-11T15:37:07.381Z,2.47
2022-08-11T15:40:01.917Z,2.28
2022-08-11T15:42:48.719Z,2.15
2022-08-11T15:45:40.878Z,2.75
2022-08-11T15:48:11.863Z,1.40
2022-08-11T15:50:45.289Z,2.40
2022-08-11T15:53:40.382Z,2.50
2022-08-11T15:56:08.647Z,1.50
2022-08-11T15:59:10.740Z,4.03
2022-08-11T16:02:08.160Z,1.50
2022-08-11T16:04:37.918Z,2.55
2022-08-11T16:07:15.943Z,1.88
2022-08-11T16:09:48.096Z,2.38
2022-08-11T16:13:03.365Z,3.10
2022-08-11T16:15:55.424Z,1.60
2022-08-11T16:18:40.850Z,4.22
2022-08-11T16:21:34.465Z,1.98
2022-08-11T16:24:06.937Z,2.90
2022-08-11T16:27:09.452Z,3.47
2022-08-11T16:29:25.338Z,1.77
2022-08-11T16:32:14.526Z,4.90
2022-08-11T16:35:07.473Z,2.90
2022-08-11T16:37:56.015Z,3.83
2022-08-11T16:40:25.804Z,3.90
2022-08-11T16:43:14.818Z,1.80
2022-08-11T16:46:02.694Z,2.42
2022-08-11T16:48:37.541Z,2.00
2022-08-11T16:51:12.102Z,3.72
2022-08-11T16:53:46.113Z,2.40
2022-08-11T16:56:49.915Z,1.88
2022-08-11T16:59:38.271Z,6.18
2022-08-11T17:02:41.433Z,1.83
2022-08-11T17:05:38.455Z,1.77
2022-08-11T17:08:54.243Z,2.70
2022-08-11T17:11:46.178Z,2.28
2022-08-11T17:14:42.971Z,1.55
2022-08-11T17:17:17.033Z,1.35
2022-08-11T17:20:41.829Z,2.25
2022-08-11T17:23:00.730Z,2.80
2022-08-11T17:25:29.411Z,1.23
2022-08-11T17:27:56.937Z,1.42
2022-08-11T17:30:45.661Z,2.63
2022-08-11T17:33:32.153Z,1.40
2022-08-11T17:36:01.004Z,2.25
2022-08-11T17:38:29.608Z,1.75
2022-08-11T17:41:23.699Z,2.78
2022-08-11T17:44:11.376Z,2.22
2022-08-11T17:47:03.577Z,1.35
2022-08-11T17:49:38.089Z,2.20
2022-08-11T17:52:25.947Z,3.03
2022-08-11T17:55:13.498Z,1.88
2022-08-11T17:58:00.729Z,2.00
2022-08-11T18:00:27.718Z,2.08
2022-08-11T18:03:14.634Z,1.63
2022-08-11T18:05:45.938Z,4.05
2022-08-11T18:08:33.141Z,3.63
2022-08-11T18:12:10.922Z,2.75
2022-08-11T18:14:27.536Z,2.58
2022-08-11T18:17:12.936Z,3.13
2022-08-11T18:19:58.411Z,2.55
2022-08-11T18:22:51.857Z,5.38
2022-08-11T18:25:45.615Z,1.60
2022-08-11T18:28:34.065Z,2.97
2022-08-11T18:31:21.126Z,1.45
2022-08-11T18:34:11.973Z,4.68
2022-08-11T18:37:04.333Z,1.95
2022-08-11T18:39:56.695Z,2.55
2022-08-11T18:42:43.561Z,1.63
2022-08-11T18:45:35.151Z,3.30
2022-08-11T18:48:37.112Z,1.60
2022-08-11T18:51:31.763Z,2.00
2022-08-11T18:54:27.262Z,3.15
2022-08-11T18:57:14.940Z,5.07
2022-08-11T19:00:02.437Z,3.13
2022-08-11T19:02:50.516Z,2.20
2022-08-11T19:06:32.205Z,3.22
2022-08-11T19:08:56.007Z,2.10
2022-08-11T19:11:45.246Z,2.80
2022-08-11T19:14:34.728Z,4.35
2022-08-11T19:17:43.879Z,2.05
2022-08-11T19:20:31.558Z,3.88
2022-08-11T19:23:18.280Z,1.60
2022-08-11T19:26:04.633Z,1.83
2022-08-11T19:28:52.561Z,4.90
2022-08-11T19:31:44.511Z,2.17
2022-08-11T19:34:40.239Z,3.17
2022-08-11T19:37:27.717Z,4.40
2022-08-11T19:40:21.630Z,1.90
2022-08-11T19:43:18.705Z,3.58
2022-08-11T19:46:15.697Z,2.13
2022-08-11T19:49:03.328Z,2.60
2022-08-11T19:51:54.189Z,4.47
2022-08-11T19:54:43.679Z,4.00
2022-08-11T19:57:29.668Z,3.75
2022-08-11T20:00:15.536Z,2.15
2022-08-11T20:03:04.871Z,4.68
2022-08-11T20:05:59.766Z,2.28
2022-08-11T20:08:47.986Z,2.95
2022-08-11T20:11:35.653Z,5.43
2022-08-11T20:14:21.996Z,2.05
2022-08-11T20:17:08.007Z,2.85
2022-08-11T20:19:57.669Z,2.80
2022-08-11T20:22:46.094Z,6.40
2022-08-11T20:25:32.555Z,1.98
2022-08-11T20:28:17.967Z,2.78
2022-08-11T20:31:04.335Z,3.08
2022-08-11T20:33:51.289Z,3.30
2022-08-11T20:36:36.721Z,4.50
2022-08-11T20:39:23.918Z,2.25
2022-08-11T20:42:11.601Z,3.20
2022-08-11T20:45:00.325Z,1.77
2022-08-11T20:47:59.861Z,3.15
2022-08-11T20:50:47.352Z,4.50
2022-08-11T20:53:36.691Z,2.47
2022-08-11T20:56:28.290Z,3.10
2022-08-11T20:59:21.496Z,2.83
2022-08-11T21:02:10.117Z,2.67
2022-08-11T21:05:00.301Z,4.40
2022-08-11T21:07:55.565Z,4.63
2022-08-11T21:10:51.140Z,4.05
2022-08-11T21:13:39.140Z,4.85
2022-08-11T21:16:27.443Z,5.75
2022-08-11T21:22:06.129Z,5.18
2022-08-11T21:24:53.088Z,5.93
2022-08-11T21:27:39.698Z,3.05
2022-08-11T21:30:25.824Z,2.40
2022-08-11T21:33:13.290Z,2.97
2022-08-11T21:35:59.289Z,2.15
2022-08-11T21:38:46.628Z,2.25
2022-08-11T21:41:33.578Z,3.33
2022-08-11T21:44:19.650Z,4.38
2022-08-11T21:47:06.127Z,3.47
2022-08-11T21:49:52.014Z,4.95
2022-08-11T21:52:38.120Z,3.08
2022-08-11T21:55:24.260Z,6.07
2022-08-11T21:58:10.106Z,4.00
2022-08-11T22:00:56.319Z,6.20
2022-08-11T22:03:49.920Z,3.80
2022-08-11T22:06:36.776Z,2.80
2022-08-11T22:09:24.000Z,2.10
2022-08-11T22:12:34.144Z,2.58
2022-08-11T22:15:16.167Z,5.03
2022-08-11T22:18:02.668Z,5.88
2022-08-11T22:20:49.086Z,4.68
2022-08-11T22:23:37.001Z,3.40
2022-08-11T22:26:25.132Z,5.55
2022-08-11T22:29:10.457Z,2.58
2022-08-11T22:31:57.549Z,3.58
2022-08-11T22:34:52.866Z,2.20
2022-08-11T22:37:40.614Z,3.45
2022-08-11T22:40:28.317Z,4.68
2022-08-11T22:43:13.859Z,4.57
2022-08-11T22:45:59.366Z,2.08
2022-08-11T22:48:48.710Z,2.75
2022-08-11T22:51:36.560Z,4.30
2022-08-11T22:54:23.754Z,3.08
2022-08-11T22:57:10.086Z,2.25
2022-08-11T22:59:56.104Z,3.35
2022-08-11T23:02:42.274Z,2.58
2022-08-11T23:05:28.455Z,3.35
2022-08-11T23:08:15.532Z,5.47
2022-08-11T23:11:01.676Z,3.00
2022-08-11T23:13:48.863Z,5.80
2022-08-11T23:16:34.977Z,3.45
2022-08-11T23:20:01.704Z,2.13
2022-08-11T23:22:36.710Z,3.35
2022-08-11T23:25:31.619Z,4.57
2022-08-11T23:28:20.068Z,4.90
2022-08-11T23:31:07.452Z,3.80
2022-08-11T23:33:56.173Z,2.65
2022-08-11T23:36:47.363Z,3.47
2022-08-11T23:39:34.193Z,2.38
2022-08-11T23:42:20.538Z,3.10
2022-08-11T23:45:09.536Z,5.72
2022-08-11T23:47:57.403Z,3.88
2022-08-11T23:50:43.281Z,4.80
2022-08-11T23:53:29.373Z,4.60
2022-08-11T23:56:14.660Z,2.45
2022-08-11T23:59:00.196Z,5.15
